Metar Aviation Weather Data LICT Vincenzo Florio Trapani-Birgi

19°C Temp
16°C Dewpoint
83% Humidity
Temperature
8 KM/H
5 MPH
4 KTS
190°
Due South

Wind Speed
Clear
Conditions
Pressure 1013 (hPa) - 29.91 (in)
Visibility 6.2 (mi) - 10 (km)

Current Conditions
LICT
Vincenzo Florio Trapani-Birgi
Metar :LICT 190355Z 19004KT CAVOK 19/16 Q1013
Thu 19th July 05:55 am

Vincenzo Florio Trapani-Birgi
  Metar Aviation API Data Provided by https://www.checkwx.com/ PHP scripts by weather34.com ©2018